sensor_id;sensor_type;location;lat;lon;timestamp;temperature;humidity
20091;DHT22;10205;49.678;6.560;2022-11-20T00:01:30;11.60;71.80
20091;DHT22;10205;49.678;6.560;2022-11-20T00:04:01;11.60;71.80
20091;DHT22;10205;49.678;6.560;2022-11-20T00:06:30;11.60;71.90
20091;DHT22;10205;49.678;6.560;2022-11-20T00:08:58;11.60;71.90
20091;DHT22;10205;49.678;6.560;2022-11-20T00:11:27;11.60;71.90
20091;DHT22;10205;49.678;6.560;2022-11-20T00:13:57;11.60;71.90
20091;DHT22;10205;49.678;6.560;2022-11-20T00:16:31;11.60;71.90
20091;DHT22;10205;49.678;6.560;2022-11-20T00:18:59;11.60;71.80
20091;DHT22;10205;49.678;6.560;2022-11-20T00:21:28;11.60;71.80
20091;DHT22;10205;49.678;6.560;2022-11-20T00:23:57;11.60;71.80
20091;DHT22;10205;49.678;6.560;2022-11-20T00:26:25;11.60;71.70
20091;DHT22;10205;49.678;6.560;2022-11-20T00:28:55;11.60;71.80
20091;DHT22;10205;49.678;6.560;2022-11-20T00:31:25;11.60;72.00
20091;DHT22;10205;49.678;6.560;2022-11-20T00:33:53;11.60;72.10
20091;DHT22;10205;49.678;6.560;2022-11-20T00:36:22;11.60;72.30
20091;DHT22;10205;49.678;6.560;2022-11-20T00:38:53;11.60;72.50
20091;DHT22;10205;49.678;6.560;2022-11-20T00:41:22;11.60;72.70
20091;DHT22;10205;49.678;6.560;2022-11-20T00:43:52;11.60;72.80
20091;DHT22;10205;49.678;6.560;2022-11-20T00:46:21;11.60;72.80
20091;DHT22;10205;49.678;6.560;2022-11-20T00:48:50;11.60;72.80
20091;DHT22;10205;49.678;6.560;2022-11-20T00:51:19;11.60;72.80
20091;DHT22;10205;49.678;6.560;2022-11-20T00:53:51;11.60;73.00
20091;DHT22;10205;49.678;6.560;2022-11-20T00:56:19;11.60;73.00
20091;DHT22;10205;49.678;6.560;2022-11-20T00:58:49;11.60;73.10
20091;DHT22;10205;49.678;6.560;2022-11-20T01:01:18;11.60;73.30
20091;DHT22;10205;49.678;6.560;2022-11-20T01:03:48;11.60;73.40
20091;DHT22;10205;49.678;6.560;2022-11-20T01:06:17;11.60;73.20
20091;DHT22;10205;49.678;6.560;2022-11-20T01:08:47;11.60;73.00
20091;DHT22;10205;49.678;6.560;2022-11-20T01:11:18;11.60;73.00
20091;DHT22;10205;49.678;6.560;2022-11-20T01:13:48;11.60;72.90
20091;DHT22;10205;49.678;6.560;2022-11-20T01:16:18;11.60;72.80
20091;DHT22;10205;49.678;6.560;2022-11-20T01:18:48;11.60;72.80
20091;DHT22;10205;49.678;6.560;2022-11-20T01:21:25;11.60;72.80
20091;DHT22;10205;49.678;6.560;2022-11-20T01:23:54;11.60;72.80
20091;DHT22;10205;49.678;6.560;2022-11-20T01:26:25;11.60;72.80
20091;DHT22;10205;49.678;6.560;2022-11-20T01:28:56;11.60;72.80
20091;DHT22;10205;49.678;6.560;2022-11-20T01:31:25;11.60;72.80
20091;DHT22;10205;49.678;6.560;2022-11-20T01:33:55;11.60;72.80
20091;DHT22;10205;49.678;6.560;2022-11-20T01:36:25;11.60;73.00
20091;DHT22;10205;49.678;6.560;2022-11-20T01:38:56;11.60;73.00
20091;DHT22;10205;49.678;6.560;2022-11-20T01:41:27;11.60;73.10
20091;DHT22;10205;49.678;6.560;2022-11-20T01:44:17;11.60;73.20
20091;DHT22;10205;49.678;6.560;2022-11-20T01:46:52;11.60;73.40
20091;DHT22;10205;49.678;6.560;2022-11-20T01:49:27;11.60;73.50
20091;DHT22;10205;49.678;6.560;2022-11-20T01:52:00;11.60;73.60
20091;DHT22;10205;49.678;6.560;2022-11-20T01:54:33;11.60;73.60
20091;DHT22;10205;49.678;6.560;2022-11-20T01:57:05;11.60;73.60
20091;DHT22;10205;49.678;6.560;2022-11-20T01:59:42;11.60;73.80
20091;DHT22;10205;49.678;6.560;2022-11-20T02:02:13;11.60;73.60
20091;DHT22;10205;49.678;6.560;2022-11-20T02:04:41;11.60;73.70
20091;DHT22;10205;49.678;6.560;2022-11-20T02:07:08;11.60;73.90
20091;DHT22;10205;49.678;6.560;2022-11-20T02:09:36;11.60;73.90
20091;DHT22;10205;49.678;6.560;2022-11-20T02:12:05;11.60;73.80
20091;DHT22;10205;49.678;6.560;2022-11-20T02:14:53;11.60;73.70
20091;DHT22;10205;49.678;6.560;2022-11-20T02:17:19;11.60;73.80
20091;DHT22;10205;49.678;6.560;2022-11-20T02:19:50;11.70;73.90
20091;DHT22;10205;49.678;6.560;2022-11-20T02:22:21;11.70;73.90
20091;DHT22;10205;49.678;6.560;2022-11-20T02:24:57;11.60;73.70
20091;DHT22;10205;49.678;6.560;2022-11-20T02:27:26;11.60;73.60
20091;DHT22;10205;49.678;6.560;2022-11-20T02:29:57;11.70;73.80
20091;DHT22;10205;49.678;6.560;2022-11-20T02:32:29;11.70;74.00
20091;DHT22;10205;49.678;6.560;2022-11-20T02:35:05;11.70;74.00
20091;DHT22;10205;49.678;6.560;2022-11-20T02:37:36;11.70;73.80
20091;DHT22;10205;49.678;6.560;2022-11-20T02:40:08;11.70;73.70
20091;DHT22;10205;49.678;6.560;2022-11-20T02:42:36;11.70;73.70
20091;DHT22;10205;49.678;6.560;2022-11-20T02:45:04;11.70;74.50
20091;DHT22;10205;49.678;6.560;2022-11-20T02:47:33;11.70;73.60
20091;DHT22;10205;49.678;6.560;2022-11-20T02:50:00;11.70;73.40
20091;DHT22;10205;49.678;6.560;2022-11-20T02:52:27;11.70;73.50
20091;DHT22;10205;49.678;6.560;2022-11-20T02:54:54;11.70;73.40
20091;DHT22;10205;49.678;6.560;2022-11-20T02:57:26;11.70;73.50
20091;DHT22;10205;49.678;6.560;2022-11-20T02:59:53;11.70;73.50
20091;DHT22;10205;49.678;6.560;2022-11-20T03:02:20;11.70;73.50
20091;DHT22;10205;49.678;6.560;2022-11-20T03:04:48;11.70;73.70
20091;DHT22;10205;49.678;6.560;2022-11-20T03:07:15;11.70;73.70
20091;DHT22;10205;49.678;6.560;2022-11-20T03:09:42;11.80;73.80
20091;DHT22;10205;49.678;6.560;2022-11-20T03:12:09;11.80;73.70
20091;DHT22;10205;49.678;6.560;2022-11-20T03:14:38;11.80;73.80
20091;DHT22;10205;49.678;6.560;2022-11-20T03:17:05;11.70;73.70
20091;DHT22;10205;49.678;6.560;2022-11-20T03:19:33;11.80;73.80
20091;DHT22;10205;49.678;6.560;2022-11-20T03:22:00;11.70;73.80
20091;DHT22;10205;49.678;6.560;2022-11-20T03:24:27;11.80;73.90
20091;DHT22;10205;49.678;6.560;2022-11-20T03:26:54;11.80;73.80
20091;DHT22;10205;49.678;6.560;2022-11-20T03:29:22;11.80;74.00
20091;DHT22;10205;49.678;6.560;2022-11-20T03:31:50;11.80;73.90
20091;DHT22;10205;49.678;6.560;2022-11-20T03:34:17;11.70;73.70
20091;DHT22;10205;49.678;6.560;2022-11-20T03:36:45;11.70;73.80
20091;DHT22;10205;49.678;6.560;2022-11-20T03:39:13;11.80;73.80
20091;DHT22;10205;49.678;6.560;2022-11-20T03:41:41;11.80;73.90
20091;DHT22;10205;49.678;6.560;2022-11-20T03:44:10;11.80;73.80
20091;DHT22;10205;49.678;6.560;2022-11-20T03:46:38;11.80;73.80
20091;DHT22;10205;49.678;6.560;2022-11-20T03:49:07;11.80;73.90
20091;DHT22;10205;49.678;6.560;2022-11-20T03:51:35;11.80;74.00
20091;DHT22;10205;49.678;6.560;2022-11-20T03:54:05;11.80;73.90
20091;DHT22;10205;49.678;6.560;2022-11-20T03:56:35;11.80;74.00
20091;DHT22;10205;49.678;6.560;2022-11-20T03:59:04;11.80;73.80
20091;DHT22;10205;49.678;6.560;2022-11-20T04:01:33;11.80;73.90
20091;DHT22;10205;49.678;6.560;2022-11-20T04:04:02;11.80;73.80
20091;DHT22;10205;49.678;6.560;2022-11-20T04:06:35;11.80;73.90
20091;DHT22;10205;49.678;6.560;2022-11-20T04:09:03;11.80;73.90
20091;DHT22;10205;49.678;6.560;2022-11-20T04:11:33;11.80;73.70
20091;DHT22;10205;49.678;6.560;2022-11-20T04:14:02;11.80;73.70
20091;DHT22;10205;49.678;6.560;2022-11-20T04:16:33;11.80;73.80
20091;DHT22;10205;49.678;6.560;2022-11-20T04:19:05;11.80;73.80
20091;DHT22;10205;49.678;6.560;2022-11-20T04:21:38;11.80;73.80
20091;DHT22;10205;49.678;6.560;2022-11-20T04:24:07;11.80;73.70
20091;DHT22;10205;49.678;6.560;2022-11-20T04:26:36;11.80;73.70
20091;DHT22;10205;49.678;6.560;2022-11-20T04:29:03;11.80;74.50
20091;DHT22;10205;49.678;6.560;2022-11-20T04:31:32;11.80;73.80
20091;DHT22;10205;49.678;6.560;2022-11-20T04:34:00;11.80;73.80
20091;DHT22;10205;49.678;6.560;2022-11-20T04:36:29;11.80;73.80
20091;DHT22;10205;49.678;6.560;2022-11-20T04:38:59;11.80;73.70
20091;DHT22;10205;49.678;6.560;2022-11-20T04:41:29;11.80;73.70
20091;DHT22;10205;49.678;6.560;2022-11-20T04:44:00;11.80;73.70
20091;DHT22;10205;49.678;6.560;2022-11-20T04:46:29;11.80;73.70
20091;DHT22;10205;49.678;6.560;2022-11-20T04:48:59;11.80;73.70
20091;DHT22;10205;49.678;6.560;2022-11-20T04:51:26;11.80;73.60
20091;DHT22;10205;49.678;6.560;2022-11-20T04:53:54;11.80;73.70
20091;DHT22;10205;49.678;6.560;2022-11-20T04:56:22;11.80;73.60
20091;DHT22;10205;49.678;6.560;2022-11-20T04:58:49;11.80;73.60
20091;DHT22;10205;49.678;6.560;2022-11-20T05:01:21;11.80;73.50
20091;DHT22;10205;49.678;6.560;2022-11-20T05:03:50;11.80;73.60
20091;DHT22;10205;49.678;6.560;2022-11-20T05:06:19;11.80;73.60
20091;DHT22;10205;49.678;6.560;2022-11-20T05:08:48;11.80;73.60
20091;DHT22;10205;49.678;6.560;2022-11-20T05:11:19;11.80;73.70
20091;DHT22;10205;49.678;6.560;2022-11-20T05:13:50;11.80;73.70
20091;DHT22;10205;49.678;6.560;2022-11-20T05:16:20;11.80;73.60
20091;DHT22;10205;49.678;6.560;2022-11-20T05:18:49;11.80;73.50
20091;DHT22;10205;49.678;6.560;2022-11-20T05:21:17;11.80;73.50
20091;DHT22;10205;49.678;6.560;2022-11-20T05:23:45;11.80;73.60
20091;DHT22;10205;49.678;6.560;2022-11-20T05:26:15;11.80;73.60
20091;DHT22;10205;49.678;6.560;2022-11-20T05:28:45;11.80;73.60
20091;DHT22;10205;49.678;6.560;2022-11-20T05:31:14;11.80;73.60
20091;DHT22;10205;49.678;6.560;2022-11-20T05:33:43;11.80;73.60
20091;DHT22;10205;49.678;6.560;2022-11-20T05:36:12;11.80;73.60
20091;DHT22;10205;49.678;6.560;2022-11-20T05:38:40;11.80;73.50
20091;DHT22;10205;49.678;6.560;2022-11-20T05:41:10;11.80;73.40
20091;DHT22;10205;49.678;6.560;2022-11-20T05:43:39;11.80;73.40
20091;DHT22;10205;49.678;6.560;2022-11-20T05:46:11;11.80;73.40
20091;DHT22;10205;49.678;6.560;2022-11-20T05:48:41;11.80;73.50
20091;DHT22;10205;49.678;6.560;2022-11-20T05:51:12;11.80;73.40
20091;DHT22;10205;49.678;6.560;2022-11-20T05:53:44;11.80;73.40
20091;DHT22;10205;49.678;6.560;2022-11-20T05:56:14;11.80;73.40
20091;DHT22;10205;49.678;6.560;2022-11-20T05:58:43;11.80;73.40
20091;DHT22;10205;49.678;6.560;2022-11-20T06:01:18;11.80;73.40
20091;DHT22;10205;49.678;6.560;2022-11-20T06:03:48;11.80;73.40
20091;DHT22;10205;49.678;6.560;2022-11-20T06:06:19;11.80;73.40
20091;DHT22;10205;49.678;6.560;2022-11-20T06:08:58;11.80;73.40
20091;DHT22;10205;49.678;6.560;2022-11-20T06:11:25;11.80;73.40
20091;DHT22;10205;49.678;6.560;2022-11-20T06:13:52;11.80;73.40
20091;DHT22;10205;49.678;6.560;2022-11-20T06:16:21;11.80;73.40
20091;DHT22;10205;49.678;6.560;2022-11-20T06:18:48;11.80;73.30
20091;DHT22;10205;49.678;6.560;2022-11-20T06:21:17;11.80;73.30
20091;DHT22;10205;49.678;6.560;2022-11-20T06:23:46;11.80;73.30
20091;DHT22;10205;49.678;6.560;2022-11-20T06:26:15;11.80;73.40
20091;DHT22;10205;49.678;6.560;2022-11-20T06:28:46;11.80;73.30
20091;DHT22;10205;49.678;6.560;2022-11-20T06:31:14;11.80;73.30
20091;DHT22;10205;49.678;6.560;2022-11-20T06:33:48;11.80;73.40
20091;DHT22;10205;49.678;6.560;2022-11-20T06:36:17;11.80;73.40
20091;DHT22;10205;49.678;6.560;2022-11-20T06:38:48;11.80;73.30
20091;DHT22;10205;49.678;6.560;2022-11-20T06:41:18;11.80;74.00
20091;DHT22;10205;49.678;6.560;2022-11-20T06:43:47;11.80;73.10
20091;DHT22;10205;49.678;6.560;2022-11-20T06:46:15;11.80;73.30
20091;DHT22;10205;49.678;6.560;2022-11-20T06:48:45;11.80;73.20
20091;DHT22;10205;49.678;6.560;2022-11-20T06:51:13;11.80;73.20
20091;DHT22;10205;49.678;6.560;2022-11-20T06:53:41;11.80;74.00
20091;DHT22;10205;49.678;6.560;2022-11-20T06:56:08;11.80;73.30
20091;DHT22;10205;49.678;6.560;2022-11-20T06:58:36;11.80;73.30
20091;DHT22;10205;49.678;6.560;2022-11-20T07:01:05;11.80;73.30
20091;DHT22;10205;49.678;6.560;2022-11-20T07:03:35;11.80;73.30
20091;DHT22;10205;49.678;6.560;2022-11-20T07:06:05;11.80;73.40
20091;DHT22;10205;49.678;6.560;2022-11-20T07:08:32;11.80;73.30
20091;DHT22;10205;49.678;6.560;2022-11-20T07:11:01;11.80;73.30
20091;DHT22;10205;49.678;6.560;2022-11-20T07:13:30;11.80;73.30
20091;DHT22;10205;49.678;6.560;2022-11-20T07:15:59;11.80;73.30
20091;DHT22;10205;49.678;6.560;2022-11-20T07:18:27;11.80;73.40
20091;DHT22;10205;49.678;6.560;2022-11-20T07:20:54;11.80;73.30
20091;DHT22;10205;49.678;6.560;2022-11-20T07:23:23;11.80;73.40
20091;DHT22;10205;49.678;6.560;2022-11-20T07:25:50;11.80;74.10
20091;DHT22;10205;49.678;6.560;2022-11-20T07:28:17;11.80;73.30
20091;DHT22;10205;49.678;6.560;2022-11-20T07:30:49;11.80;73.30
20091;DHT22;10205;49.678;6.560;2022-11-20T07:33:17;11.80;73.40
20091;DHT22;10205;49.678;6.560;2022-11-20T07:35:44;11.80;73.40
20091;DHT22;10205;49.678;6.560;2022-11-20T07:38:11;11.80;73.40
20091;DHT22;10205;49.678;6.560;2022-11-20T07:40:40;11.80;73.60
20091;DHT22;10205;49.678;6.560;2022-11-20T07:43:07;11.80;73.60
20091;DHT22;10205;49.678;6.560;2022-11-20T07:45:37;11.80;73.60
20091;DHT22;10205;49.678;6.560;2022-11-20T07:48:04;11.70;73.40
20091;DHT22;10205;49.678;6.560;2022-11-20T07:50:32;11.80;73.50
20091;DHT22;10205;49.678;6.560;2022-11-20T07:53:03;11.80;73.40
20091;DHT22;10205;49.678;6.560;2022-11-20T07:55:31;11.80;73.40
20091;DHT22;10205;49.678;6.560;2022-11-20T07:58:00;11.80;73.40
20091;DHT22;10205;49.678;6.560;2022-11-20T08:00:29;11.80;73.40
20091;DHT22;10205;49.678;6.560;2022-11-20T08:02:56;11.80;73.40
20091;DHT22;10205;49.678;6.560;2022-11-20T08:05:23;11.80;73.40
20091;DHT22;10205;49.678;6.560;2022-11-20T08:07:50;11.80;73.30
20091;DHT22;10205;49.678;6.560;2022-11-20T08:10:18;11.80;73.30
20091;DHT22;10205;49.678;6.560;2022-11-20T08:12:46;11.80;73.30
20091;DHT22;10205;49.678;6.560;2022-11-20T08:15:33;11.80;73.20
20091;DHT22;10205;49.678;6.560;2022-11-20T08:18:01;11.80;73.20
20091;DHT22;10205;49.678;6.560;2022-11-20T08:20:29;11.80;73.10
20091;DHT22;10205;49.678;6.560;2022-11-20T08:23:00;11.80;73.10
20091;DHT22;10205;49.678;6.560;2022-11-20T08:25:29;11.80;73.10
20091;DHT22;10205;49.678;6.560;2022-11-20T08:27:57;11.90;74.10
20091;DHT22;10205;49.678;6.560;2022-11-20T08:30:25;11.80;73.30
20091;DHT22;10205;49.678;6.560;2022-11-20T08:32:54;11.80;73.20
20091;DHT22;10205;49.678;6.560;2022-11-20T08:35:27;11.80;73.80
20091;DHT22;10205;49.678;6.560;2022-11-20T08:37:54;11.90;73.00
20091;DHT22;10205;49.678;6.560;2022-11-20T08:40:21;11.90;73.00
20091;DHT22;10205;49.678;6.560;2022-11-20T08:42:49;11.90;73.00
20091;DHT22;10205;49.678;6.560;2022-11-20T08:45:18;11.90;73.10
20091;DHT22;10205;49.678;6.560;2022-11-20T08:47:46;11.90;73.00
20091;DHT22;10205;49.678;6.560;2022-11-20T08:50:15;11.90;73.00
20091;DHT22;10205;49.678;6.560;2022-11-20T08:52:44;11.90;72.70
20091;DHT22;10205;49.678;6.560;2022-11-20T08:55:11;11.90;72.60
20091;DHT22;10205;49.678;6.560;2022-11-20T08:57:38;11.90;72.80
20091;DHT22;10205;49.678;6.560;2022-11-20T09:00:07;11.90;72.70
20091;DHT22;10205;49.678;6.560;2022-11-20T09:02:35;11.90;72.90
20091;DHT22;10205;49.678;6.560;2022-11-20T09:05:02;11.90;73.00
20091;DHT22;10205;49.678;6.560;2022-11-20T09:07:31;11.90;73.10
20091;DHT22;10205;49.678;6.560;2022-11-20T09:09:58;11.90;73.10
20091;DHT22;10205;49.678;6.560;2022-11-20T09:12:25;11.90;73.10
20091;DHT22;10205;49.678;6.560;2022-11-20T09:14:52;11.90;73.10
20091;DHT22;10205;49.678;6.560;2022-11-20T09:17:19;11.90;73.00
20091;DHT22;10205;49.678;6.560;2022-11-20T09:19:49;11.90;73.20
20091;DHT22;10205;49.678;6.560;2022-11-20T09:22:16;11.90;73.40
20091;DHT22;10205;49.678;6.560;2022-11-20T09:24:44;11.90;73.30
20091;DHT22;10205;49.678;6.560;2022-11-20T09:27:11;11.90;73.20
20091;DHT22;10205;49.678;6.560;2022-11-20T09:29:39;11.90;73.30
20091;DHT22;10205;49.678;6.560;2022-11-20T09:32:07;11.90;73.30
20091;DHT22;10205;49.678;6.560;2022-11-20T09:34:34;11.90;73.50
20091;DHT22;10205;49.678;6.560;2022-11-20T09:37:00;11.90;73.50
20091;DHT22;10205;49.678;6.560;2022-11-20T09:39:28;12.00;73.60
20091;DHT22;10205;49.678;6.560;2022-11-20T09:42:16;12.00;73.30
20091;DHT22;10205;49.678;6.560;2022-11-20T09:45:05;12.00;73.20
20091;DHT22;10205;49.678;6.560;2022-11-20T09:47:59;12.00;72.80
20091;DHT22;10205;49.678;6.560;2022-11-20T09:50:38;12.00;72.60
20091;DHT22;10205;49.678;6.560;2022-11-20T09:53:13;12.00;72.80
20091;DHT22;10205;49.678;6.560;2022-11-20T09:55:48;12.00;72.80
20091;DHT22;10205;49.678;6.560;2022-11-20T09:58:27;12.00;72.90
20091;DHT22;10205;49.678;6.560;2022-11-20T10:01:03;12.10;72.80
20091;DHT22;10205;49.678;6.560;2022-11-20T10:03:45;12.10;72.80
20091;DHT22;10205;49.678;6.560;2022-11-20T10:06:24;12.10;72.70
20091;DHT22;10205;49.678;6.560;2022-11-20T10:09:03;12.10;72.20
20091;DHT22;10205;49.678;6.560;2022-11-20T10:11:48;12.10;71.90
20091;DHT22;10205;49.678;6.560;2022-11-20T10:14:29;12.10;71.10
20091;DHT22;10205;49.678;6.560;2022-11-20T10:17:08;12.10;70.90
20091;DHT22;10205;49.678;6.560;2022-11-20T10:19:54;12.10;71.20
20091;DHT22;10205;49.678;6.560;2022-11-20T10:22:41;12.10;70.70
20091;DHT22;10205;49.678;6.560;2022-11-20T10:25:28;12.10;70.70
20091;DHT22;10205;49.678;6.560;2022-11-20T10:28:22;12.10;70.90
20091;DHT22;10205;49.678;6.560;2022-11-20T10:31:02;12.10;70.80
20091;DHT22;10205;49.678;6.560;2022-11-20T10:33:34;12.10;71.10
20091;DHT22;10205;49.678;6.560;2022-11-20T10:36:10;12.10;72.10
20091;DHT22;10205;49.678;6.560;2022-11-20T10:38:44;12.20;71.40
20091;DHT22;10205;49.678;6.560;2022-11-20T10:41:21;12.10;71.70
20091;DHT22;10205;49.678;6.560;2022-11-20T10:43:57;12.20;71.70
20091;DHT22;10205;49.678;6.560;2022-11-20T10:46:35;12.20;71.50
20091;DHT22;10205;49.678;6.560;2022-11-20T10:49:12;12.20;71.50
20091;DHT22;10205;49.678;6.560;2022-11-20T10:51:52;12.30;71.90
20091;DHT22;10205;49.678;6.560;2022-11-20T10:54:35;12.20;71.90
20091;DHT22;10205;49.678;6.560;2022-11-20T10:57:15;12.30;71.90
20091;DHT22;10205;49.678;6.560;2022-11-20T11:00:03;12.30;71.80
20091;DHT22;10205;49.678;6.560;2022-11-20T11:02:35;12.40;71.80
20091;DHT22;10205;49.678;6.560;2022-11-20T11:05:13;12.40;71.60
20091;DHT22;10205;49.678;6.560;2022-11-20T11:07:51;12.50;71.50
20091;DHT22;10205;49.678;6.560;2022-11-20T11:10:24;12.50;72.40
20091;DHT22;10205;49.678;6.560;2022-11-20T11:12:54;12.50;71.50
20091;DHT22;10205;49.678;6.560;2022-11-20T11:15:27;12.60;71.60
20091;DHT22;10205;49.678;6.560;2022-11-20T11:17:57;12.60;71.00
20091;DHT22;10205;49.678;6.560;2022-11-20T11:20:25;12.60;71.10
20091;DHT22;10205;49.678;6.560;2022-11-20T11:22:54;12.60;71.20
20091;DHT22;10205;49.678;6.560;2022-11-20T11:25:28;12.60;71.30
20091;DHT22;10205;49.678;6.560;2022-11-20T11:27:58;12.70;70.80
20091;DHT22;10205;49.678;6.560;2022-11-20T11:30:29;12.70;71.00
20091;DHT22;10205;49.678;6.560;2022-11-20T11:33:06;12.80;70.90
20091;DHT22;10205;49.678;6.560;2022-11-20T11:35:44;12.80;70.70
20091;DHT22;10205;49.678;6.560;2022-11-20T11:38:15;12.80;70.10
20091;DHT22;10205;49.678;6.560;2022-11-20T11:40:46;12.80;70.20
20091;DHT22;10205;49.678;6.560;2022-11-20T11:43:25;12.80;69.90
20091;DHT22;10205;49.678;6.560;2022-11-20T11:46:31;12.90;69.90
20091;DHT22;10205;49.678;6.560;2022-11-20T11:49:15;12.80;69.40
20091;DHT22;10205;49.678;6.560;2022-11-20T11:51:56;12.90;69.90
20091;DHT22;10205;49.678;6.560;2022-11-20T11:54:34;12.90;70.00
20091;DHT22;10205;49.678;6.560;2022-11-20T11:57:12;12.90;69.90
20091;DHT22;10205;49.678;6.560;2022-11-20T11:59:54;12.90;69.70
20091;DHT22;10205;49.678;6.560;2022-11-20T12:02:36;12.90;69.20
20091;DHT22;10205;49.678;6.560;2022-11-20T12:05:16;13.00;68.80
20091;DHT22;10205;49.678;6.560;2022-11-20T12:07:47;13.00;68.80
20091;DHT22;10205;49.678;6.560;2022-11-20T12:10:22;13.00;68.00
20091;DHT22;10205;49.678;6.560;2022-11-20T12:13:16;13.00;68.30
20091;DHT22;10205;49.678;6.560;2022-11-20T12:15:48;13.00;68.40
20091;DHT22;10205;49.678;6.560;2022-11-20T12:18:18;13.00;68.80
20091;DHT22;10205;49.678;6.560;2022-11-20T12:20:56;13.00;68.80
20091;DHT22;10205;49.678;6.560;2022-11-20T12:23:39;13.00;68.60
20091;DHT22;10205;49.678;6.560;2022-11-20T12:26:19;13.10;68.80
20091;DHT22;10205;49.678;6.560;2022-11-20T12:29:05;13.10;68.90
20091;DHT22;10205;49.678;6.560;2022-11-20T12:32:06;13.00;68.20
20091;DHT22;10205;49.678;6.560;2022-11-20T12:34:58;13.10;68.30
20091;DHT22;10205;49.678;6.560;2022-11-20T12:37:39;13.10;68.40
20091;DHT22;10205;49.678;6.560;2022-11-20T12:40:28;13.10;68.20
20091;DHT22;10205;49.678;6.560;2022-11-20T12:43:10;13.10;68.20
20091;DHT22;10205;49.678;6.560;2022-11-20T12:46:29;13.10;68.10
20091;DHT22;10205;49.678;6.560;2022-11-20T12:49:10;13.10;67.20
20091;DHT22;10205;49.678;6.560;2022-11-20T12:52:00;13.00;67.70
20091;DHT22;10205;49.678;6.560;2022-11-20T12:55:05;13.00;67.40
20091;DHT22;10205;49.678;6.560;2022-11-20T12:57:43;13.00;66.80
20091;DHT22;10205;49.678;6.560;2022-11-20T13:00:19;13.00;67.60
20091;DHT22;10205;49.678;6.560;2022-11-20T13:06:14;12.90;67.00
20091;DHT22;10205;49.678;6.560;2022-11-20T13:08:48;13.00;67.80
20091;DHT22;10205;49.678;6.560;2022-11-20T13:11:25;12.90;67.60
20091;DHT22;10205;49.678;6.560;2022-11-20T13:14:16;12.90;67.40
20091;DHT22;10205;49.678;6.560;2022-11-20T13:16:58;12.90;67.00
20091;DHT22;10205;49.678;6.560;2022-11-20T13:19:31;12.90;67.30
20091;DHT22;10205;49.678;6.560;2022-11-20T13:21:59;12.90;67.20
20091;DHT22;10205;49.678;6.560;2022-11-20T13:24:27;12.90;67.60
20091;DHT22;10205;49.678;6.560;2022-11-20T13:27:21;12.90;67.20
20091;DHT22;10205;49.678;6.560;2022-11-20T13:30:13;12.90;66.00
20091;DHT22;10205;49.678;6.560;2022-11-20T13:32:53;12.90;66.70
20091;DHT22;10205;49.678;6.560;2022-11-20T13:35:27;12.90;67.00
20091;DHT22;10205;49.678;6.560;2022-11-20T13:38:02;12.90;66.90
20091;DHT22;10205;49.678;6.560;2022-11-20T13:40:32;12.90;67.10
20091;DHT22;10205;49.678;6.560;2022-11-20T13:43:19;12.90;67.10
20091;DHT22;10205;49.678;6.560;2022-11-20T13:45:58;12.80;66.90
20091;DHT22;10205;49.678;6.560;2022-11-20T13:48:30;12.90;67.30
20091;DHT22;10205;49.678;6.560;2022-11-20T13:51:14;12.90;67.20
20091;DHT22;10205;49.678;6.560;2022-11-20T13:54:09;12.90;67.10
20091;DHT22;10205;49.678;6.560;2022-11-20T13:56:56;12.90;66.60
20091;DHT22;10205;49.678;6.560;2022-11-20T13:59:42;12.90;66.80
20091;DHT22;10205;49.678;6.560;2022-11-20T14:02:18;12.90;66.90
20091;DHT22;10205;49.678;6.560;2022-11-20T14:04:50;12.90;66.60
20091;DHT22;10205;49.678;6.560;2022-11-20T14:07:21;12.90;66.60
20091;DHT22;10205;49.678;6.560;2022-11-20T14:09:53;12.90;66.70
20091;DHT22;10205;49.678;6.560;2022-11-20T14:12:23;12.90;67.10
20091;DHT22;10205;49.678;6.560;2022-11-20T14:14:57;12.90;66.80
20091;DHT22;10205;49.678;6.560;2022-11-20T14:17:30;12.90;66.90
20091;DHT22;10205;49.678;6.560;2022-11-20T14:20:01;12.90;66.60
20091;DHT22;10205;49.678;6.560;2022-11-20T14:22:30;12.90;66.40
20091;DHT22;10205;49.678;6.560;2022-11-20T14:25:04;12.80;66.60
20091;DHT22;10205;49.678;6.560;2022-11-20T14:27:36;12.90;66.40
20091;DHT22;10205;49.678;6.560;2022-11-20T14:30:11;12.80;66.40
20091;DHT22;10205;49.678;6.560;2022-11-20T14:32:41;12.80;66.50
20091;DHT22;10205;49.678;6.560;2022-11-20T14:35:13;12.80;66.70
20091;DHT22;10205;49.678;6.560;2022-11-20T14:37:46;12.80;67.00
20091;DHT22;10205;49.678;6.560;2022-11-20T14:40:27;12.80;66.30
20091;DHT22;10205;49.678;6.560;2022-11-20T14:42:56;12.80;66.30
20091;DHT22;10205;49.678;6.560;2022-11-20T14:45:26;12.80;66.50
20091;DHT22;10205;49.678;6.560;2022-11-20T14:47:57;12.80;66.70
20091;DHT22;10205;49.678;6.560;2022-11-20T14:50:26;12.80;66.40
20091;DHT22;10205;49.678;6.560;2022-11-20T14:52:56;12.80;66.80
20091;DHT22;10205;49.678;6.560;2022-11-20T14:55:26;12.80;66.60
20091;DHT22;10205;49.678;6.560;2022-11-20T14:57:55;12.80;66.50
20091;DHT22;10205;49.678;6.560;2022-11-20T15:00:25;12.80;66.60
20091;DHT22;10205;49.678;6.560;2022-11-20T15:02:53;12.80;66.60
20091;DHT22;10205;49.678;6.560;2022-11-20T15:05:21;12.80;66.50
20091;DHT22;10205;49.678;6.560;2022-11-20T15:07:51;12.80;66.50
20091;DHT22;10205;49.678;6.560;2022-11-20T15:10:31;12.80;66.30
20091;DHT22;10205;49.678;6.560;2022-11-20T15:13:00;12.80;66.50
20091;DHT22;10205;49.678;6.560;2022-11-20T15:15:35;12.70;66.10
20091;DHT22;10205;49.678;6.560;2022-11-20T15:18:11;12.70;66.50
20091;DHT22;10205;49.678;6.560;2022-11-20T15:20:41;12.70;66.50
20091;DHT22;10205;49.678;6.560;2022-11-20T15:23:11;12.70;66.80
20091;DHT22;10205;49.678;6.560;2022-11-20T15:25:39;12.70;66.90
20091;DHT22;10205;49.678;6.560;2022-11-20T15:28:14;12.70;67.10
20091;DHT22;10205;49.678;6.560;2022-11-20T15:30:46;12.70;67.10
20091;DHT22;10205;49.678;6.560;2022-11-20T15:33:15;12.70;67.20
20091;DHT22;10205;49.678;6.560;2022-11-20T15:35:43;12.70;67.50
20091;DHT22;10205;49.678;6.560;2022-11-20T15:38:10;12.60;67.50
20091;DHT22;10205;49.678;6.560;2022-11-20T15:40:37;12.60;67.70
20091;DHT22;10205;49.678;6.560;2022-11-20T15:43:05;12.60;67.80
20091;DHT22;10205;49.678;6.560;2022-11-20T15:45:38;12.60;67.90
20091;DHT22;10205;49.678;6.560;2022-11-20T15:48:13;12.60;67.80
20091;DHT22;10205;49.678;6.560;2022-11-20T15:50:48;12.60;68.00
20091;DHT22;10205;49.678;6.560;2022-11-20T15:53:19;12.50;68.00
20091;DHT22;10205;49.678;6.560;2022-11-20T15:55:46;12.50;68.20
20091;DHT22;10205;49.678;6.560;2022-11-20T15:58:13;12.50;68.40
20091;DHT22;10205;49.678;6.560;2022-11-20T16:00:42;12.50;68.60
20091;DHT22;10205;49.678;6.560;2022-11-20T16:03:11;12.50;68.70
20091;DHT22;10205;49.678;6.560;2022-11-20T16:05:39;12.40;68.60